sensor_id;sensor_type;location;lat;lon;timestamp;P1;durP1;ratioP1;P2;durP2;ratioP2
789;SDS011;378;48.844;9.156;2023-03-24T00:02:13;4.35;;;2.50;;
789;SDS011;378;48.844;9.156;2023-03-24T00:04:40;4.10;;;2.75;;
789;SDS011;378;48.844;9.156;2023-03-24T00:07:07;8.68;;;3.38;;
789;SDS011;378;48.844;9.156;2023-03-24T00:09:38;5.40;;;2.05;;
789;SDS011;378;48.844;9.156;2023-03-24T00:12:07;4.05;;;2.70;;
789;SDS011;378;48.844;9.156;2023-03-24T00:14:35;6.72;;;2.20;;
789;SDS011;378;48.844;9.156;2023-03-24T00:17:03;3.58;;;2.30;;
789;SDS011;378;48.844;9.156;2023-03-24T00:19:30;4.10;;;2.00;;
789;SDS011;378;48.844;9.156;2023-03-24T00:22:02;6.72;;;2.55;;
789;SDS011;378;48.844;9.156;2023-03-24T00:24:29;7.85;;;2.40;;
789;SDS011;378;48.844;9.156;2023-03-24T00:26:56;3.65;;;1.90;;
789;SDS011;378;48.844;9.156;2023-03-24T00:29:24;3.33;;;2.25;;
789;SDS011;378;48.844;9.156;2023-03-24T00:31:52;3.22;;;2.10;;
789;SDS011;378;48.844;9.156;2023-03-24T00:34:19;3.53;;;1.80;;
789;SDS011;378;48.844;9.156;2023-03-24T00:36:46;4.57;;;2.10;;
789;SDS011;378;48.844;9.156;2023-03-24T00:39:14;3.70;;;2.03;;
789;SDS011;378;48.844;9.156;2023-03-24T00:41:41;6.85;;;1.90;;
789;SDS011;378;48.844;9.156;2023-03-24T00:44:10;6.00;;;2.33;;
789;SDS011;378;48.844;9.156;2023-03-24T00:46:43;3.50;;;2.03;;
789;SDS011;378;48.844;9.156;2023-03-24T00:49:19;3.25;;;2.08;;
789;SDS011;378;48.844;9.156;2023-03-24T00:52:06;3.03;;;1.83;;
789;SDS011;378;48.844;9.156;2023-03-24T00:54:34;5.68;;;2.10;;
789;SDS011;378;48.844;9.156;2023-03-24T00:57:01;4.13;;;2.30;;
789;SDS011;378;48.844;9.156;2023-03-24T00:59:29;3.63;;;2.08;;
789;SDS011;378;48.844;9.156;2023-03-24T01:01:57;3.97;;;1.90;;
789;SDS011;378;48.844;9.156;2023-03-24T01:04:24;3.90;;;1.83;;
789;SDS011;378;48.844;9.156;2023-03-24T01:06:51;4.50;;;2.05;;
789;SDS011;378;48.844;9.156;2023-03-24T01:09:22;2.80;;;2.00;;
789;SDS011;378;48.844;9.156;2023-03-24T01:11:50;5.68;;;1.90;;
789;SDS011;378;48.844;9.156;2023-03-24T01:14:17;2.95;;;2.00;;
789;SDS011;378;48.844;9.156;2023-03-24T01:16:44;2.80;;;1.60;;
789;SDS011;378;48.844;9.156;2023-03-24T01:19:12;3.70;;;2.15;;
789;SDS011;378;48.844;9.156;2023-03-24T01:21:40;4.22;;;2.10;;
789;SDS011;378;48.844;9.156;2023-03-24T01:24:07;2.85;;;1.80;;
789;SDS011;378;48.844;9.156;2023-03-24T01:26:34;2.97;;;1.92;;
789;SDS011;378;48.844;9.156;2023-03-24T01:29:01;5.10;;;1.90;;
789;SDS011;378;48.844;9.156;2023-03-24T01:31:29;2.75;;;1.98;;
789;SDS011;378;48.844;9.156;2023-03-24T01:33:55;6.28;;;2.05;;
789;SDS011;378;48.844;9.156;2023-03-24T01:36:24;2.50;;;1.63;;
789;SDS011;378;48.844;9.156;2023-03-24T01:38:51;3.60;;;1.58;;
789;SDS011;378;48.844;9.156;2023-03-24T01:41:18;4.35;;;2.00;;
789;SDS011;378;48.844;9.156;2023-03-24T01:43:45;3.15;;;1.83;;
789;SDS011;378;48.844;9.156;2023-03-24T01:46:13;3.40;;;1.80;;
789;SDS011;378;48.844;9.156;2023-03-24T01:48:43;2.90;;;2.08;;
789;SDS011;378;48.844;9.156;2023-03-24T01:51:15;2.65;;;1.50;;
789;SDS011;378;48.844;9.156;2023-03-24T01:53:46;4.90;;;1.75;;
789;SDS011;378;48.844;9.156;2023-03-24T01:56:18;3.35;;;1.95;;
789;SDS011;378;48.844;9.156;2023-03-24T01:58:46;3.33;;;1.90;;
789;SDS011;378;48.844;9.156;2023-03-24T02:01:16;6.85;;;1.92;;
789;SDS011;378;48.844;9.156;2023-03-24T02:03:44;3.28;;;1.63;;
789;SDS011;378;48.844;9.156;2023-03-24T02:06:12;2.63;;;1.70;;
789;SDS011;378;48.844;9.156;2023-03-24T02:08:40;5.75;;;2.10;;
789;SDS011;378;48.844;9.156;2023-03-24T02:11:17;3.80;;;1.60;;
789;SDS011;378;48.844;9.156;2023-03-24T02:13:45;2.22;;;1.58;;
789;SDS011;378;48.844;9.156;2023-03-24T02:16:13;4.30;;;1.60;;
789;SDS011;378;48.844;9.156;2023-03-24T02:18:50;4.18;;;1.65;;
789;SDS011;378;48.844;9.156;2023-03-24T02:30:37;3.67;;;1.30;;
789;SDS011;378;48.844;9.156;2023-03-24T02:33:35;2.13;;;1.58;;
789;SDS011;378;48.844;9.156;2023-03-24T02:39:42;2.22;;;1.30;;
789;SDS011;378;48.844;9.156;2023-03-24T02:42:22;4.03;;;1.48;;
789;SDS011;378;48.844;9.156;2023-03-24T02:45:05;2.85;;;1.33;;
789;SDS011;378;48.844;9.156;2023-03-24T02:47:41;2.50;;;1.30;;
789;SDS011;378;48.844;9.156;2023-03-24T02:50:18;2.28;;;1.38;;
789;SDS011;378;48.844;9.156;2023-03-24T02:52:52;4.47;;;1.50;;
789;SDS011;378;48.844;9.156;2023-03-24T02:55:28;1.95;;;1.30;;
789;SDS011;378;48.844;9.156;2023-03-24T02:58:00;2.92;;;1.50;;
789;SDS011;378;48.844;9.156;2023-03-24T03:00:31;2.35;;;1.40;;
789;SDS011;378;48.844;9.156;2023-03-24T03:03:04;2.75;;;1.40;;
789;SDS011;378;48.844;9.156;2023-03-24T03:05:34;2.75;;;1.35;;
789;SDS011;378;48.844;9.156;2023-03-24T03:08:05;2.10;;;1.30;;
789;SDS011;378;48.844;9.156;2023-03-24T03:10:36;2.47;;;1.40;;
789;SDS011;378;48.844;9.156;2023-03-24T03:13:06;3.33;;;1.70;;
789;SDS011;378;48.844;9.156;2023-03-24T03:15:38;2.30;;;1.15;;
789;SDS011;378;48.844;9.156;2023-03-24T03:18:10;1.75;;;1.38;;
789;SDS011;378;48.844;9.156;2023-03-24T03:20:44;3.05;;;1.50;;
789;SDS011;378;48.844;9.156;2023-03-24T03:23:18;2.08;;;1.40;;
789;SDS011;378;48.844;9.156;2023-03-24T03:25:51;2.13;;;1.30;;
789;SDS011;378;48.844;9.156;2023-03-24T03:28:29;1.90;;;1.30;;
789;SDS011;378;48.844;9.156;2023-03-24T03:30:59;3.90;;;1.50;;
789;SDS011;378;48.844;9.156;2023-03-24T03:33:33;4.93;;;1.40;;
789;SDS011;378;48.844;9.156;2023-03-24T03:36:05;3.55;;;1.48;;
789;SDS011;378;48.844;9.156;2023-03-24T03:38:39;2.47;;;1.40;;
789;SDS011;378;48.844;9.156;2023-03-24T03:41:13;2.05;;;1.30;;
789;SDS011;378;48.844;9.156;2023-03-24T03:43:42;5.00;;;1.30;;
789;SDS011;378;48.844;9.156;2023-03-24T03:46:10;1.85;;;1.38;;
789;SDS011;378;48.844;9.156;2023-03-24T03:48:37;3.15;;;1.70;;
789;SDS011;378;48.844;9.156;2023-03-24T03:51:05;3.92;;;1.45;;
789;SDS011;378;48.844;9.156;2023-03-24T03:53:35;1.75;;;1.30;;
789;SDS011;378;48.844;9.156;2023-03-24T03:56:09;2.25;;;1.60;;
789;SDS011;378;48.844;9.156;2023-03-24T03:58:38;3.75;;;1.38;;
789;SDS011;378;48.844;9.156;2023-03-24T04:01:06;7.13;;;1.60;;
789;SDS011;378;48.844;9.156;2023-03-24T04:03:40;2.90;;;1.52;;
789;SDS011;378;48.844;9.156;2023-03-24T04:06:24;1.63;;;1.20;;
789;SDS011;378;48.844;9.156;2023-03-24T04:09:02;2.75;;;1.52;;
789;SDS011;378;48.844;9.156;2023-03-24T04:11:45;4.60;;;1.65;;
789;SDS011;378;48.844;9.156;2023-03-24T04:14:31;5.00;;;1.67;;
789;SDS011;378;48.844;9.156;2023-03-24T04:17:18;4.50;;;1.50;;
789;SDS011;378;48.844;9.156;2023-03-24T04:20:00;1.90;;;1.33;;
789;SDS011;378;48.844;9.156;2023-03-24T04:22:36;3.50;;;1.35;;
789;SDS011;378;48.844;9.156;2023-03-24T04:25:15;4.18;;;1.40;;
789;SDS011;378;48.844;9.156;2023-03-24T04:27:50;2.33;;;1.25;;
789;SDS011;378;48.844;9.156;2023-03-24T04:30:29;3.30;;;1.50;;
789;SDS011;378;48.844;9.156;2023-03-24T04:33:04;3.35;;;1.60;;
789;SDS011;378;48.844;9.156;2023-03-24T04:35:36;2.38;;;1.60;;
789;SDS011;378;48.844;9.156;2023-03-24T04:38:09;4.38;;;1.70;;
789;SDS011;378;48.844;9.156;2023-03-24T04:40:41;3.72;;;1.27;;
789;SDS011;378;48.844;9.156;2023-03-24T04:43:14;1.85;;;1.40;;
789;SDS011;378;48.844;9.156;2023-03-24T04:45:45;3.45;;;1.50;;
789;SDS011;378;48.844;9.156;2023-03-24T04:48:14;2.17;;;1.40;;
789;SDS011;378;48.844;9.156;2023-03-24T04:50:46;1.65;;;1.13;;
789;SDS011;378;48.844;9.156;2023-03-24T04:53:16;2.70;;;1.20;;
789;SDS011;378;48.844;9.156;2023-03-24T04:55:47;2.85;;;1.30;;
789;SDS011;378;48.844;9.156;2023-03-24T04:58:22;2.65;;;1.23;;
789;SDS011;378;48.844;9.156;2023-03-24T05:00:51;2.55;;;1.17;;
789;SDS011;378;48.844;9.156;2023-03-24T05:03:19;1.33;;;1.00;;
789;SDS011;378;48.844;9.156;2023-03-24T05:05:47;2.67;;;1.38;;
789;SDS011;378;48.844;9.156;2023-03-24T05:08:15;2.17;;;1.10;;
789;SDS011;378;48.844;9.156;2023-03-24T05:10:42;3.85;;;1.50;;
789;SDS011;378;48.844;9.156;2023-03-24T05:13:10;3.28;;;1.42;;
789;SDS011;378;48.844;9.156;2023-03-24T05:15:38;3.33;;;1.50;;
789;SDS011;378;48.844;9.156;2023-03-24T05:18:06;2.10;;;1.70;;
789;SDS011;378;48.844;9.156;2023-03-24T05:20:33;2.63;;;1.70;;
789;SDS011;378;48.844;9.156;2023-03-24T05:23:00;5.55;;;1.38;;
789;SDS011;378;48.844;9.156;2023-03-24T05:25:27;3.47;;;1.52;;
789;SDS011;378;48.844;9.156;2023-03-24T05:27:54;2.05;;;1.50;;
789;SDS011;378;48.844;9.156;2023-03-24T05:30:21;3.83;;;1.80;;
789;SDS011;378;48.844;9.156;2023-03-24T05:32:47;3.15;;;1.70;;
789;SDS011;378;48.844;9.156;2023-03-24T05:35:16;5.28;;;2.13;;
789;SDS011;378;48.844;9.156;2023-03-24T05:37:43;4.15;;;2.17;;
789;SDS011;378;48.844;9.156;2023-03-24T05:40:10;3.40;;;2.00;;
789;SDS011;378;48.844;9.156;2023-03-24T05:42:37;4.65;;;2.15;;
789;SDS011;378;48.844;9.156;2023-03-24T05:45:05;3.83;;;2.00;;
789;SDS011;378;48.844;9.156;2023-03-24T05:47:32;4.13;;;2.15;;
789;SDS011;378;48.844;9.156;2023-03-24T05:49:59;4.05;;;2.45;;
789;SDS011;378;48.844;9.156;2023-03-24T05:52:27;6.72;;;2.70;;
789;SDS011;378;48.844;9.156;2023-03-24T05:54:55;4.88;;;2.78;;
789;SDS011;378;48.844;9.156;2023-03-24T05:57:22;5.20;;;2.80;;
789;SDS011;378;48.844;9.156;2023-03-24T05:59:49;7.97;;;2.83;;
789;SDS011;378;48.844;9.156;2023-03-24T06:02:17;3.65;;;2.53;;
789;SDS011;378;48.844;9.156;2023-03-24T06:04:44;4.95;;;2.75;;
789;SDS011;378;48.844;9.156;2023-03-24T06:07:13;4.40;;;2.50;;
789;SDS011;378;48.844;9.156;2023-03-24T06:09:41;4.93;;;2.50;;
789;SDS011;378;48.844;9.156;2023-03-24T06:12:11;3.83;;;2.50;;
789;SDS011;378;48.844;9.156;2023-03-24T06:14:38;3.58;;;2.53;;
789;SDS011;378;48.844;9.156;2023-03-24T06:17:06;3.78;;;2.50;;
789;SDS011;378;48.844;9.156;2023-03-24T06:19:33;3.60;;;2.53;;
789;SDS011;378;48.844;9.156;2023-03-24T06:22:02;4.05;;;2.33;;
789;SDS011;378;48.844;9.156;2023-03-24T06:24:30;4.32;;;2.60;;
789;SDS011;378;48.844;9.156;2023-03-24T06:26:58;4.82;;;2.85;;
789;SDS011;378;48.844;9.156;2023-03-24T06:29:26;6.75;;;3.40;;
789;SDS011;378;48.844;9.156;2023-03-24T06:31:54;6.05;;;3.03;;
789;SDS011;378;48.844;9.156;2023-03-24T06:34:21;5.20;;;2.90;;
789;SDS011;378;48.844;9.156;2023-03-24T06:36:49;3.92;;;2.80;;
789;SDS011;378;48.844;9.156;2023-03-24T06:39:16;7.28;;;2.65;;
789;SDS011;378;48.844;9.156;2023-03-24T06:41:43;5.95;;;2.53;;
789;SDS011;378;48.844;9.156;2023-03-24T06:44:12;3.97;;;2.67;;
789;SDS011;378;48.844;9.156;2023-03-24T06:46:38;8.70;;;3.05;;
789;SDS011;378;48.844;9.156;2023-03-24T06:49:05;4.13;;;2.90;;
789;SDS011;378;48.844;9.156;2023-03-24T06:51:33;6.03;;;2.47;;
789;SDS011;378;48.844;9.156;2023-03-24T06:54:00;3.95;;;2.72;;
789;SDS011;378;48.844;9.156;2023-03-24T06:56:27;6.95;;;3.17;;
789;SDS011;378;48.844;9.156;2023-03-24T06:58:54;8.23;;;3.17;;
789;SDS011;378;48.844;9.156;2023-03-24T07:01:23;4.47;;;3.10;;
789;SDS011;378;48.844;9.156;2023-03-24T07:03:50;6.57;;;2.75;;
789;SDS011;378;48.844;9.156;2023-03-24T07:06:17;4.88;;;2.58;;
789;SDS011;378;48.844;9.156;2023-03-24T07:08:46;5.00;;;2.70;;
789;SDS011;378;48.844;9.156;2023-03-24T07:11:13;4.20;;;2.47;;
789;SDS011;378;48.844;9.156;2023-03-24T07:13:40;4.30;;;2.70;;
789;SDS011;378;48.844;9.156;2023-03-24T07:16:07;4.65;;;2.63;;
789;SDS011;378;48.844;9.156;2023-03-24T07:18:35;4.38;;;2.63;;
789;SDS011;378;48.844;9.156;2023-03-24T07:21:02;4.80;;;2.30;;
789;SDS011;378;48.844;9.156;2023-03-24T07:23:32;6.30;;;2.35;;
789;SDS011;378;48.844;9.156;2023-03-24T07:25:59;3.88;;;2.40;;
789;SDS011;378;48.844;9.156;2023-03-24T07:28:26;7.43;;;2.60;;
789;SDS011;378;48.844;9.156;2023-03-24T07:30:53;4.72;;;2.50;;
789;SDS011;378;48.844;9.156;2023-03-24T07:33:19;4.05;;;2.67;;
789;SDS011;378;48.844;9.156;2023-03-24T07:35:49;6.38;;;2.45;;
789;SDS011;378;48.844;9.156;2023-03-24T07:38:20;5.10;;;2.65;;
789;SDS011;378;48.844;9.156;2023-03-24T07:40:46;4.68;;;2.92;;
789;SDS011;378;48.844;9.156;2023-03-24T07:43:13;6.68;;;2.70;;
789;SDS011;378;48.844;9.156;2023-03-24T07:45:42;4.32;;;3.17;;
789;SDS011;378;48.844;9.156;2023-03-24T07:48:09;7.25;;;3.00;;
789;SDS011;378;48.844;9.156;2023-03-24T07:50:36;5.22;;;2.72;;
789;SDS011;378;48.844;9.156;2023-03-24T07:53:05;5.22;;;2.72;;
789;SDS011;378;48.844;9.156;2023-03-24T07:55:33;6.30;;;3.20;;
789;SDS011;378;48.844;9.156;2023-03-24T07:58:01;9.65;;;3.25;;
789;SDS011;378;48.844;9.156;2023-03-24T08:00:27;4.75;;;3.40;;
789;SDS011;378;48.844;9.156;2023-03-24T08:02:56;4.75;;;3.22;;
789;SDS011;378;48.844;9.156;2023-03-24T08:05:24;4.60;;;2.70;;
789;SDS011;378;48.844;9.156;2023-03-24T08:07:54;6.13;;;3.10;;
789;SDS011;378;48.844;9.156;2023-03-24T08:10:24;5.18;;;3.00;;
789;SDS011;378;48.844;9.156;2023-03-24T08:12:52;8.40;;;3.03;;
789;SDS011;378;48.844;9.156;2023-03-24T08:15:20;5.38;;;2.70;;
789;SDS011;378;48.844;9.156;2023-03-24T08:17:47;7.40;;;3.08;;
789;SDS011;378;48.844;9.156;2023-03-24T08:20:15;6.10;;;2.95;;
789;SDS011;378;48.844;9.156;2023-03-24T08:22:44;6.80;;;2.90;;
789;SDS011;378;48.844;9.156;2023-03-24T08:25:14;5.45;;;3.17;;
789;SDS011;378;48.844;9.156;2023-03-24T08:27:43;9.07;;;3.13;;
789;SDS011;378;48.844;9.156;2023-03-24T08:30:12;7.53;;;3.60;;
789;SDS011;378;48.844;9.156;2023-03-24T08:32:42;5.40;;;3.30;;
789;SDS011;378;48.844;9.156;2023-03-24T08:35:11;7.03;;;3.40;;
789;SDS011;378;48.844;9.156;2023-03-24T08:37:39;6.85;;;3.40;;
789;SDS011;378;48.844;9.156;2023-03-24T08:40:07;7.28;;;3.00;;
789;SDS011;378;48.844;9.156;2023-03-24T08:42:38;7.43;;;3.50;;
789;SDS011;378;48.844;9.156;2023-03-24T08:45:07;6.80;;;3.75;;
789;SDS011;378;48.844;9.156;2023-03-24T08:47:36;7.03;;;3.50;;
789;SDS011;378;48.844;9.156;2023-03-24T08:50:04;8.75;;;3.50;;
789;SDS011;378;48.844;9.156;2023-03-24T08:52:32;10.98;;;3.38;;
789;SDS011;378;48.844;9.156;2023-03-24T08:54:59;6.78;;;2.50;;
789;SDS011;378;48.844;9.156;2023-03-24T08:57:26;4.65;;;2.70;;
789;SDS011;378;48.844;9.156;2023-03-24T08:59:53;3.42;;;2.67;;
789;SDS011;378;48.844;9.156;2023-03-24T09:02:21;7.07;;;2.28;;
789;SDS011;378;48.844;9.156;2023-03-24T09:04:48;3.92;;;2.65;;
789;SDS011;378;48.844;9.156;2023-03-24T09:07:17;3.53;;;2.30;;
789;SDS011;378;48.844;9.156;2023-03-24T09:09:44;3.70;;;2.20;;
789;SDS011;378;48.844;9.156;2023-03-24T09:12:12;2.72;;;1.95;;
789;SDS011;378;48.844;9.156;2023-03-24T09:14:38;2.90;;;1.95;;
789;SDS011;378;48.844;9.156;2023-03-24T09:17:05;4.32;;;1.98;;
789;SDS011;378;48.844;9.156;2023-03-24T09:19:34;3.28;;;1.85;;
789;SDS011;378;48.844;9.156;2023-03-24T09:22:01;3.28;;;1.92;;
789;SDS011;378;48.844;9.156;2023-03-24T09:24:28;2.13;;;1.73;;
789;SDS011;378;48.844;9.156;2023-03-24T09:26:55;4.28;;;2.03;;
789;SDS011;378;48.844;9.156;2023-03-24T09:29:22;4.60;;;2.50;;
789;SDS011;378;48.844;9.156;2023-03-24T09:31:49;3.40;;;1.80;;
789;SDS011;378;48.844;9.156;2023-03-24T09:34:18;2.53;;;1.80;;
789;SDS011;378;48.844;9.156;2023-03-24T09:36:46;3.90;;;1.80;;
789;SDS011;378;48.844;9.156;2023-03-24T09:39:13;4.47;;;1.65;;
789;SDS011;378;48.844;9.156;2023-03-24T09:41:41;3.55;;;1.70;;
789;SDS011;378;48.844;9.156;2023-03-24T09:44:12;3.35;;;1.60;;
789;SDS011;378;48.844;9.156;2023-03-24T09:46:47;3.15;;;1.70;;
789;SDS011;378;48.844;9.156;2023-03-24T09:49:20;2.45;;;1.52;;
789;SDS011;378;48.844;9.156;2023-03-24T09:51:50;2.38;;;1.70;;
789;SDS011;378;48.844;9.156;2023-03-24T09:54:24;3.85;;;1.75;;
789;SDS011;378;48.844;9.156;2023-03-24T09:56:56;2.85;;;1.92;;
789;SDS011;378;48.844;9.156;2023-03-24T09:59:28;4.10;;;1.70;;
789;SDS011;378;48.844;9.156;2023-03-24T10:01:59;2.17;;;1.63;;
789;SDS011;378;48.844;9.156;2023-03-24T10:04:27;2.15;;;1.55;;
789;SDS011;378;48.844;9.156;2023-03-24T10:06:58;2.22;;;1.42;;
789;SDS011;378;48.844;9.156;2023-03-24T10:09:32;2.72;;;1.52;;
789;SDS011;378;48.844;9.156;2023-03-24T10:12:08;3.72;;;1.50;;
789;SDS011;378;48.844;9.156;2023-03-24T10:14:48;4.45;;;1.40;;
789;SDS011;378;48.844;9.156;2023-03-24T10:17:24;1.30;;;1.20;;
789;SDS011;378;48.844;9.156;2023-03-24T10:19:59;5.47;;;1.10;;
789;SDS011;378;48.844;9.156;2023-03-24T10:22:34;1.17;;;1.08;;
789;SDS011;378;48.844;9.156;2023-03-24T10:25:06;1.40;;;1.10;;
789;SDS011;378;48.844;9.156;2023-03-24T10:27:40;4.03;;;1.17;;
789;SDS011;378;48.844;9.156;2023-03-24T10:30:12;1.90;;;1.00;;
789;SDS011;378;48.844;9.156;2023-03-24T10:32:42;4.00;;;1.17;;
789;SDS011;378;48.844;9.156;2023-03-24T10:35:13;1.30;;;1.00;;
789;SDS011;378;48.844;9.156;2023-03-24T10:37:44;1.40;;;1.05;;
789;SDS011;378;48.844;9.156;2023-03-24T10:40:15;2.25;;;0.90;;
789;SDS011;378;48.844;9.156;2023-03-24T10:42:44;1.70;;;1.00;;
789;SDS011;378;48.844;9.156;2023-03-24T10:45:24;3.75;;;1.08;;
789;SDS011;378;48.844;9.156;2023-03-24T10:47:56;2.95;;;0.85;;
789;SDS011;378;48.844;9.156;2023-03-24T10:50:26;1.67;;;0.95;;
789;SDS011;378;48.844;9.156;2023-03-24T10:52:55;2.50;;;0.75;;
789;SDS011;378;48.844;9.156;2023-03-24T10:55:23;2.85;;;1.00;;
789;SDS011;378;48.844;9.156;2023-03-24T10:57:56;0.95;;;0.80;;
789;SDS011;378;48.844;9.156;2023-03-24T11:00:25;2.17;;;0.90;;
789;SDS011;378;48.844;9.156;2023-03-24T11:02:56;0.63;;;0.63;;
789;SDS011;378;48.844;9.156;2023-03-24T11:05:26;1.35;;;0.80;;
789;SDS011;378;48.844;9.156;2023-03-24T11:07:59;3.33;;;0.90;;
789;SDS011;378;48.844;9.156;2023-03-24T11:10:39;2.67;;;0.88;;
789;SDS011;378;48.844;9.156;2023-03-24T11:13:13;1.73;;;0.73;;
789;SDS011;378;48.844;9.156;2023-03-24T11:15:51;0.77;;;0.68;;
789;SDS011;378;48.844;9.156;2023-03-24T11:18:20;1.48;;;0.90;;
789;SDS011;378;48.844;9.156;2023-03-24T11:20:49;2.75;;;1.00;;
789;SDS011;378;48.844;9.156;2023-03-24T11:23:25;1.67;;;0.90;;
789;SDS011;378;48.844;9.156;2023-03-24T11:26:08;2.78;;;0.82;;
789;SDS011;378;48.844;9.156;2023-03-24T11:28:40;1.20;;;0.80;;
789;SDS011;378;48.844;9.156;2023-03-24T11:31:10;2.22;;;0.88;;
789;SDS011;378;48.844;9.156;2023-03-24T11:33:44;2.05;;;0.70;;
789;SDS011;378;48.844;9.156;2023-03-24T11:39:18;0.90;;;0.80;;
789;SDS011;378;48.844;9.156;2023-03-24T11:42:00;1.17;;;0.75;;
789;SDS011;378;48.844;9.156;2023-03-24T11:44:42;0.60;;;0.60;;
789;SDS011;378;48.844;9.156;2023-03-24T11:47:12;1.90;;;0.70;;
789;SDS011;378;48.844;9.156;2023-03-24T11:49:43;1.20;;;0.68;;
789;SDS011;378;48.844;9.156;2023-03-24T11:52:15;2.17;;;0.85;;
789;SDS011;378;48.844;9.156;2023-03-24T11:54:48;1.67;;;0.68;;
789;SDS011;378;48.844;9.156;2023-03-24T11:57:17;0.65;;;0.60;;
789;SDS011;378;48.844;9.156;2023-03-24T11:59:51;2.22;;;0.80;;
789;SDS011;378;48.844;9.156;2023-03-24T12:02:24;1.60;;;0.60;;
789;SDS011;378;48.844;9.156;2023-03-24T12:05:14;1.48;;;0.95;;
789;SDS011;378;48.844;9.156;2023-03-24T12:10:57;0.75;;;0.70;;
789;SDS011;378;48.844;9.156;2023-03-24T12:13:34;1.63;;;0.60;;
789;SDS011;378;48.844;9.156;2023-03-24T12:16:10;1.23;;;0.77;;
789;SDS011;378;48.844;9.156;2023-03-24T12:18:54;4.07;;;1.02;;
789;SDS011;378;48.844;9.156;2023-03-24T12:21:36;1.10;;;0.90;;
789;SDS011;378;48.844;9.156;2023-03-24T12:24:16;0.60;;;0.60;;
789;SDS011;378;48.844;9.156;2023-03-24T12:26:55;1.15;;;0.43;;
789;SDS011;378;48.844;9.156;2023-03-24T12:29:30;0.88;;;0.60;;
789;SDS011;378;48.844;9.156;2023-03-24T12:32:15;0.80;;;0.50;;
789;SDS011;378;48.844;9.156;2023-03-24T12:37:46;1.10;;;0.50;;
789;SDS011;378;48.844;9.156;2023-03-24T12:40:32;0.75;;;0.63;;
789;SDS011;378;48.844;9.156;2023-03-24T12:43:17;0.50;;;0.50;;
789;SDS011;378;48.844;9.156;2023-03-24T12:45:52;2.78;;;0.52;;
789;SDS011;378;48.844;9.156;2023-03-24T12:48:31;2.83;;;0.40;;
789;SDS011;378;48.844;9.156;2023-03-24T12:51:14;1.02;;;0.50;;
789;SDS011;378;48.844;9.156;2023-03-24T12:53:51;0.88;;;0.50;;
789;SDS011;378;48.844;9.156;2023-03-24T12:56:30;0.52;;;0.40;;
789;SDS011;378;48.844;9.156;2023-03-24T12:59:03;1.02;;;0.40;;
789;SDS011;378;48.844;9.156;2023-03-24T13:01:35;1.63;;;0.57;;
789;SDS011;378;48.844;9.156;2023-03-24T13:04:06;1.33;;;0.52;;
789;SDS011;378;48.844;9.156;2023-03-24T13:06:37;2.65;;;0.40;;
789;SDS011;378;48.844;9.156;2023-03-24T13:09:13;0.85;;;0.40;;
789;SDS011;378;48.844;9.156;2023-03-24T13:11:50;1.33;;;0.40;;
789;SDS011;378;48.844;9.156;2023-03-24T13:14:24;0.52;;;0.30;;
789;SDS011;378;48.844;9.156;2023-03-24T13:17:01;0.77;;;0.40;;
789;SDS011;378;48.844;9.156;2023-03-24T13:19:32;0.40;;;0.40;;
789;SDS011;378;48.844;9.156;2023-03-24T13:22:00;1.90;;;0.40;;
789;SDS011;378;48.844;9.156;2023-03-24T13:24:29;0.40;;;0.40;;
789;SDS011;378;48.844;9.156;2023-03-24T13:26:59;2.05;;;0.75;;
789;SDS011;378;48.844;9.156;2023-03-24T13:29:46;6.03;;;0.70;;
789;SDS011;378;48.844;9.156;2023-03-24T13:32:40;1.15;;;0.60;;
789;SDS011;378;48.844;9.156;2023-03-24T13:35:12;2.00;;;0.70;;
789;SDS011;378;48.844;9.156;2023-03-24T13:37:46;6.65;;;0.82;;
789;SDS011;378;48.844;9.156;2023-03-24T13:40:20;4.25;;;0.98;;
789;SDS011;378;48.844;9.156;2023-03-24T13:42:51;1.35;;;0.50;;
789;SDS011;378;48.844;9.156;2023-03-24T13:45:23;2.80;;;0.73;;
789;SDS011;378;48.844;9.156;2023-03-24T13:48:04;1.90;;;0.77;;
789;SDS011;378;48.844;9.156;2023-03-24T13:50:46;1.27;;;0.73;;
789;SDS011;378;48.844;9.156;2023-03-24T13:53:24;2.47;;;0.82;;
789;SDS011;378;48.844;9.156;2023-03-24T13:55:58;3.90;;;0.80;;
789;SDS011;378;48.844;9.156;2023-03-24T13:58:27;3.00;;;0.98;;
789;SDS011;378;48.844;9.156;2023-03-24T14:01:16;2.10;;;0.80;;
789;SDS011;378;48.844;9.156;2023-03-24T14:06:53;2.25;;;0.90;;
789;SDS011;378;48.844;9.156;2023-03-24T14:09:22;1.65;;;0.73;;
789;SDS011;378;48.844;9.156;2023-03-24T14:12:14;9.93;;;1.10;;
789;SDS011;378;48.844;9.156;2023-03-24T14:17:46;4.10;;;1.00;;
789;SDS011;378;48.844;9.156;2023-03-24T14:20:28;1.88;;;0.80;;
789;SDS011;378;48.844;9.156;2023-03-24T14:22:59;3.08;;;0.82;;
789;SDS011;378;48.844;9.156;2023-03-24T14:25:28;1.85;;;0.82;;
789;SDS011;378;48.844;9.156;2023-03-24T14:28:08;3.85;;;0.80;;
789;SDS011;378;48.844;9.156;2023-03-24T14:30:53;3.10;;;1.00;;
789;SDS011;378;48.844;9.156;2023-03-24T14:33:28;2.88;;;1.00;;
789;SDS011;378;48.844;9.156;2023-03-24T14:35:56;2.13;;;0.73;;
789;SDS011;378;48.844;9.156;2023-03-24T14:38:29;1.38;;;0.82;;
789;SDS011;378;48.844;9.156;2023-03-24T14:41:04;3.50;;;1.17;;
789;SDS011;378;48.844;9.156;2023-03-24T14:46:32;2.65;;;0.80;;
789;SDS011;378;48.844;9.156;2023-03-24T14:49:04;2.05;;;0.95;;
789;SDS011;378;48.844;9.156;2023-03-24T14:51:40;2.83;;;0.90;;
789;SDS011;378;48.844;9.156;2023-03-24T14:54:12;2.53;;;0.70;;
789;SDS011;378;48.844;9.156;2023-03-24T14:56:44;2.13;;;0.85;;
789;SDS011;378;48.844;9.156;2023-03-24T14:59:19;2.60;;;0.90;;
789;SDS011;378;48.844;9.156;2023-03-24T15:01:54;1.00;;;0.70;;
789;SDS011;378;48.844;9.156;2023-03-24T15:04:27;1.67;;;0.90;;
789;SDS011;378;48.844;9.156;2023-03-24T15:06:54;1.92;;;0.98;;
789;SDS011;378;48.844;9.156;2023-03-24T15:09:21;1.38;;;0.88;;
789;SDS011;378;48.844;9.156;2023-03-24T15:11:48;1.88;;;0.70;;
789;SDS011;378;48.844;9.156;2023-03-24T15:14:19;1.15;;;0.98;;
789;SDS011;378;48.844;9.156;2023-03-24T15:16:52;2.42;;;0.90;;
789;SDS011;378;48.844;9.156;2023-03-24T15:19:22;1.20;;;0.75;;
789;SDS011;378;48.844;9.156;2023-03-24T15:21:57;1.63;;;0.70;;
789;SDS011;378;48.844;9.156;2023-03-24T15:24:31;2.55;;;1.20;;
789;SDS011;378;48.844;9.156;2023-03-24T15:27:22;4.40;;;1.20;;
789;SDS011;378;48.844;9.156;2023-03-24T15:29:55;5.95;;;1.08;;
789;SDS011;378;48.844;9.156;2023-03-24T15:32:23;2.28;;;0.82;;
789;SDS011;378;48.844;9.156;2023-03-24T15:34:56;1.17;;;0.90;;
789;SDS011;378;48.844;9.156;2023-03-24T15:37:29;6.65;;;0.90;;
789;SDS011;378;48.844;9.156;2023-03-24T15:39:58;4.05;;;0.98;;
789;SDS011;378;48.844;9.156;2023-03-24T15:42:25;4.35;;;1.10;;
789;SDS011;378;48.844;9.156;2023-03-24T15:44:52;3.70;;;0.98;;
789;SDS011;378;48.844;9.156;2023-03-24T15:47:21;3.25;;;1.10;;
789;SDS011;378;48.844;9.156;2023-03-24T15:49:50;3.10;;;1.60;;
789;SDS011;378;48.844;9.156;2023-03-24T15:52:28;3.63;;;1.10;;
789;SDS011;378;48.844;9.156;2023-03-24T15:54:59;2.08;;;1.00;;
789;SDS011;378;48.844;9.156;2023-03-24T15:57:28;2.25;;;1.10;;
789;SDS011;378;48.844;9.156;2023-03-24T16:00:06;6.30;;;1.40;;
789;SDS011;378;48.844;9.156;2023-03-24T16:02:41;3.13;;;1.33;;
789;SDS011;378;48.844;9.156;2023-03-24T16:05:12;3.75;;;1.38;;
789;SDS011;378;48.844;9.156;2023-03-24T16:07:51;1.98;;;1.00;;
789;SDS011;378;48.844;9.156;2023-03-24T16:10:29;1.52;;;1.00;;
789;SDS011;378;48.844;9.156;2023-03-24T16:12:58;2.85;;;1.40;;
789;SDS011;378;48.844;9.156;2023-03-24T16:15:36;3.72;;;1.00;;
789;SDS011;378;48.844;9.156;2023-03-24T16:18:03;3.58;;;1.10;;
789;SDS011;378;48.844;9.156;2023-03-24T16:20:30;3.45;;;0.90;;
789;SDS011;378;48.844;9.156;2023-03-24T16:22:58;1.73;;;0.90;;
789;SDS011;378;48.844;9.156;2023-03-24T16:25:25;3.03;;;0.90;;
789;SDS011;378;48.844;9.156;2023-03-24T16:27:52;2.33;;;1.23;;
789;SDS011;378;48.844;9.156;2023-03-24T16:30:20;1.40;;;0.90;;
789;SDS011;378;48.844;9.156;2023-03-24T16:32:50;2.40;;;0.93;;
789;SDS011;378;48.844;9.156;2023-03-24T16:35:17;4.13;;;0.70;;
789;SDS011;378;48.844;9.156;2023-03-24T16:37:44;2.67;;;0.65;;
789;SDS011;378;48.844;9.156;2023-03-24T16:40:18;1.17;;;0.60;;
789;SDS011;378;48.844;9.156;2023-03-24T16:42:47;4.10;;;1.05;;